• Join FlightAware (Why Join?)
  • Login
  • US Flag 
01:40AM EDT


 

Airport Tracker/Info


-or-


 

Live Flight TrackerFlight Track Log ✈ FIV606 ✈ 08-May-2013 ✈ KLNK - KTEB

Flight Track Log - Related Links

Times and Time Zones

All times are in EDT time to prevent confusion due to time zone crossing. See the FIV606 flight status page for this flight to view local times or setup timezone preferences in your user account.

Time Position Orientation Groundspeed Altitude Reporting Facility
EDT Latitude Longitude Course Direction KTS MPH feet Rate Location/Type
09:41AM 40.8275 -96.7444 143° Southeast 152 175 2,100  Level Minneapolis Center
09:41AM 40.8053 -96.7219 143° Southeast 216 249 3,400 3,360 Climbing Minneapolis Center
09:42AM 40.8000 -96.6317 94° East 298 343 7,200 3,600 Climbing Minneapolis Center
09:44AM 40.8719 -96.5511 40° Northeast 292 336 11,400 3,300 Climbing Minneapolis Center
09:45AM 40.9386 -96.4606 46° Northeast 328 377 14,600 2,940 Climbing Minneapolis Center
09:46AM 40.9792 -96.3400 66° East 361 415 17,500 2,580 Climbing Minneapolis Center
09:47AM 40.9978 -96.2008 80° East 380 437 20,000 2,520 Climbing Minneapolis Center
09:48AM 41.0194 -96.0311 80° East 390 449 22,800 2,220 Climbing Minneapolis Center
09:49AM 41.0397 -95.8828 80° East 407 468 24,700 1,740 Climbing Minneapolis Center
09:50AM 41.0594 -95.7292 80° East 421 484 26,500 1,680 Climbing Minneapolis Center
09:51AM 41.0800 -95.5703 80° East 436 502 28,200 1,860 Climbing Minneapolis Center
09:52AM 41.1017 -95.4114 80° East 440 506 30,400 2,160 Climbing Minneapolis Center
09:53AM 41.1242 -95.2256 81° East 432 497 32,700 1,980 Climbing Minneapolis Center
09:54AM 41.1442 -95.0719 80° East 427 491 34,500 1,260 Climbing Minneapolis Center
09:55AM 41.1622 -94.9147 81° East 430 495 35,400 1,320 Climbing Minneapolis Center
09:56AM 41.1819 -94.7578 80° East 432 497 37,300 1,200 Climbing Minneapolis Center
09:57AM 41.2008 -94.6003 81° East 432 497 38,000 780 Climbing Minneapolis Center
09:58AM 41.2178 -94.4419 82° East 433 498 39,000 480 Climbing Minneapolis Center
09:59AM 41.2364 -94.2789 81° East 442 509 39,000 480 Level Minneapolis Center
10:00AM 41.2589 -94.0919 81° East 456 525 40,000 960 Climbing Minneapolis Center
10:01AM 41.2786 -93.9275 81° East 456 525 41,000 480 Climbing Minneapolis Center
10:02AM 41.2964 -93.7639 82° East 452 520 41,000  Level Minneapolis Center
10:03AM 41.3153 -93.5964 81° East 457 526 41,000  Level Minneapolis Center
10:04AM 41.3306 -93.3883 84° East 470 541 41,000  Level Minneapolis Center
10:05AM 41.3419 -93.2200 85° East 465 535 41,000  Level Minneapolis Center
10:06AM 41.3519 -93.0517 85° East 461 531 41,000  Level Minneapolis Center
10:07AM 41.3622 -92.8842 85° East 459 528 41,000  Level Minneapolis Center
10:08AM 41.3722 -92.7158 85° East 458 527 41,000  Level Minneapolis Center
10:09AM 41.3819 -92.5489 86° East 457 526 41,000  Level Minneapolis Center
10:10AM 41.3875 -92.4472 86° East 455 524 41,000  Level Chicago Center
10:11AM 41.3958 -92.3008 86° East 456 525 41,000  Level Chicago Center
10:12AM 41.4067 -92.0986 86° East 462 532 41,000  Level Chicago Center
10:13AM 41.4161 -91.9353 86° East 455 524 41,000  Level Chicago Center
10:14AM 41.4236 -91.7686 87° East 456 525 41,000  Level Chicago Center
10:15AM 41.4333 -91.6028 85° East 456 525 41,000  Level Chicago Center
10:16AM 41.4422 -91.4028 87° East 458 527 41,000  Level Chicago Center
10:17AM 41.4489 -91.2550 87° East 462 532 41,000  Level Chicago Center
10:18AM 41.4583 -91.0517 86° East 461 531 41,000  Level Chicago Center
10:19AM 41.4650 -90.8806 87° East 462 532 41,000  Level Chicago Center
10:20AM 41.4722 -90.7097 87° East 462 532 41,000  Level Chicago Center
10:21AM 41.4794 -90.5403 87° East 458 527 41,000  Level Chicago Center
10:22AM 41.4864 -90.3700 87° East 459 528 41,000  Level Chicago Center
10:23AM 41.4931 -90.2011 87° East 457 526 41,000  Level Chicago Center
10:24AM 41.4992 -90.0325 87° East 454 522 41,000  Level Chicago Center
10:25AM 41.5061 -89.8319 87° East 449 517 41,000  Level Chicago Center
10:26AM 41.5122 -89.6661 87° East 446 513 41,000  Level Chicago Center
10:27AM 41.5161 -89.4989 88° East 448 516 41,000  Level Chicago Center
10:28AM 41.5228 -89.3344 87° East 445 512 41,000  Level Chicago Center
10:29AM 41.5261 -89.1694 88° East 444 511 41,000  Level Chicago Center
10:31AM 41.5308 -89.0047 88° East 443 510 41,000  Level Chicago Center
10:32AM 41.5350 -88.8411 88° East 441 507 41,000  Level Chicago Center
10:33AM 41.5403 -88.6383 88° East 445 512 41,000  Level Chicago Center
10:34AM 41.5433 -88.4742 89° East 446 513 41,000  Level Chicago Center
10:35AM 41.5489 -88.3097 87° East 446 513 41,000  Level Chicago Center
10:36AM 41.5681 -88.1436 81° East 447 514 41,000  Level Chicago Center
10:37AM 41.5881 -87.9750 81° East 452 520 41,000  Level Chicago Center
10:38AM 41.6075 -87.8075 81° East 454 522 41,000  Level Chicago Center
10:39AM 41.6253 -87.6431 82° East 449 517 41,000  Level Chicago Center
10:40AM 41.6436 -87.4789 81° East 448 516 41,000  Level Chicago Center
10:41AM 41.6664 -87.2814 81° East 449 517 41,000  Level Chicago Center
10:42AM 41.6839 -87.1175 82° East 447 514 41,000  Level Chicago Center
10:43AM 41.7017 -86.9533 82° East 448 516 41,000  Level Chicago Center
10:44AM 41.7192 -86.7892 82° East 447 514 41,000  Level Chicago Center
10:45AM 41.7394 -86.6031 82° East 447 514 41,000  Level Chicago Center
10:46AM 41.7561 -86.4417 82° East 442 509 41,000  Level Chicago Center
10:47AM 41.7717 -86.2783 83° East 440 506 41,000  Level Chicago Center
10:48AM 41.7892 -86.1175 82° East 440 506 41,000  Level Chicago Center
10:49AM 41.8058 -85.9556 82° East 438 504 41,000  Level Chicago Center
10:50AM 41.8228 -85.7933 82° East 438 504 41,000  Level Chicago Center
10:51AM 41.8417 -85.5989 83° East 437 503 41,000  Level Chicago Center
10:52AM 41.8592 -85.4339 82° East 441 507 41,000  Level Chicago Center
10:53AM 41.8744 -85.2692 83° East 438 504 41,000  Level Chicago Center
10:54AM 41.8872 -85.1664 80° East 442 509 41,000  Level Cleveland Center
10:55AM 41.9042 -85.0003 82° East 442 509 41,000  Level Cleveland Center
10:56AM 41.9206 -84.8394 82° East 437 503 41,000  Level Cleveland Center
10:57AM 41.9369 -84.6786 82° East 442 509 41,000  Level Cleveland Center
10:58AM 41.9508 -84.5147 83° East 442 509 41,000  Level Cleveland Center
10:59AM 41.9689 -84.3508 82° East 442 509 41,000  Level Cleveland Center
11:00AM 41.9797 -84.2061 84° East 437 503 41,000  Level Cleveland Center
11:01AM 41.9931 -84.0450 84° East 437 503 41,000  Level Cleveland Center
11:02AM 42.0022 -83.8833 86° East 437 503 41,000  Level Cleveland Center
11:03AM 42.0025 -83.7211 90° East 437 503 41,000  Level Cleveland Center
11:04AM 42.0028 -83.5564 90° East 437 503 41,000  Level Cleveland Center
11:05AM 42.0025 -83.3942 90° East 437 503 41,000  Level Cleveland Center
11:06AM 42.0022 -83.2322 90° East 437 503 41,000  Level Cleveland Center
11:07AM 41.9997 -83.0672 91° East 437 503 41,000  Level Cleveland Center
11:08AM 42.0011 -82.9022 89° East 437 503 41,000  Level Cleveland Center
11:09AM 42.0000 -82.7431 90° East 437 503 41,000  Level Cleveland Center
11:10AM 42.0008 -82.5781 90° East 437 503 41,000  Level Cleveland Center
11:11AM 41.9972 -82.4217 92° East 437 503 41,000  Level Cleveland Center
11:12AM 41.9978 -82.2594 90° East 431 496 41,000  Level Cleveland Center
11:13AM 41.9939 -82.0806 92° East 431 496 41,000  Level Cleveland Center
11:14AM 41.9917 -81.9214 91° East 431 496 41,000  Level Cleveland Center
11:15AM 41.9914 -81.7592 90° East 431 496 41,000  Level Cleveland Center
11:16AM 41.9867 -81.6139 92° East 431 496 41,000  Level Cleveland Center
11:17AM 41.9858 -81.4547 90° East 431 496 41,000  Level Cleveland Center
11:18AM 41.9828 -81.2956 91° East 425 489 41,000  Level Cleveland Center
11:19AM 41.9794 -81.1333 92° East 425 489 41,000  Level Cleveland Center
11:20AM 41.9761 -80.9547 91° East 433 498 41,000  Level Cleveland Center
11:21AM 41.9703 -80.7897 93° East 438 504 41,000  Level Cleveland Center
11:22AM 41.9683 -80.6278 91° East 433 498 41,000  Level Cleveland Center
11:23AM 41.9642 -80.4714 92° East 427 491 41,000  Level Cleveland Center
11:24AM 41.9597 -80.3122 92° East 422 486 41,000  Level Cleveland Center
11:25AM 41.9550 -80.1533 92° East 422 486 41,000  Level Cleveland Center
11:26AM 41.9522 -80.0081 91° East 422 486 41,000  Level Cleveland Center
11:27AM 41.9472 -79.8350 92° East 422 486 41,000  Level Cleveland Center
11:28AM 41.9417 -79.6731 93° East 422 486 41,000  Level Cleveland Center
11:29AM 41.9364 -79.5142 93° East 422 486 41,000  Level Cleveland Center
11:30AM 41.9306 -79.3522 93° East 422 486 41,000  Level Cleveland Center
11:31AM 41.9244 -79.1906 93° East 429 494 41,000  Level Cleveland Center
11:32AM 41.9164 -79.0428 94° East 434 499 41,000  Level Cleveland Center
11:33AM 41.9117 -78.8700 92° East 434 499 41,000  Level Cleveland Center
11:34AM 41.9050 -78.7056 93° East 429 494 41,000  Level Cleveland Center
11:35AM 41.8961 -78.5467 94° East 429 494 41,000  Level Cleveland Center
11:36AM 41.8889 -78.3853 93° East 429 494 41,000  Level Cleveland Center
11:38AM 41.8733 -78.0133 93° East 432 497 41,000 -600 Level New York Center
11:39AM 41.8603 -77.8503 96° East 432 497 39,000 -2,160 Descending New York Center
11:40AM 41.8214 -77.6986 109° East 432 497 36,800 -2,040 Descending New York Center
11:41AM 41.7872 -77.5669 109° East 406 467 35,000 -1,080 Descending New York Center
11:42AM 41.7550 -77.4386 109° East 378 435 34,700 -900 Descending New York Center
11:43AM 41.7206 -77.3100 110° East 373 429 33,200 -1,560 Descending New York Center
11:44AM 41.6858 -77.1817 110° East 367 422 31,700 -1,560 Descending New York Center
11:45AM 41.6472 -77.0447 111° Southeast 372 428 30,200 -1,500 Descending New York Center
11:46AM 41.6106 -76.9081 110° East 383 441 28,700 -1,560 Descending New York Center
11:47AM 41.5742 -76.7689 109° East 388 447 27,200 -1,500 Descending New York Center
11:48AM 41.5350 -76.6322 111° Southeast 388 447 25,700 -1,500 Descending New York Center
11:49AM 41.4997 -76.5017 110° East 388 447 24,200 -900 Descending New York Center
11:50AM 41.4678 -76.3856 110° East 380 437 24,000 -120 Descending New York Center
11:51AM 41.4325 -76.2497 109° East 380 437 24,000 -120 Level New York Center
11:52AM 41.3928 -76.1139 111° Southeast 386 444 23,800 -1,200 Descending New York Center
11:53AM 41.3586 -75.9922 110° East 377 434 21,700 -2,040 Descending New York Center
11:54AM 41.3225 -75.8678 111° Southeast 362 417 19,800 -1,860 Descending New York Center
11:55AM 41.2881 -75.7464 111° Southeast 357 411 18,000 -1,440 Descending New York Center
11:56AM 41.2550 -75.6364 112° Southeast 336 387 16,900 -1,440 Descending New York Center
11:57AM 41.2217 -75.5347 114° Southeast 309 356 15,100 -1,740 Descending New York Center
11:58AM 41.1883 -75.4358 114° Southeast 274 315 13,400 -1,620 Descending New York Center
11:59AM 41.1561 -75.3483 116° Southeast 258 297 12,000 -1,500 Descending New York Center
12:00PM 41.1239 -75.2661 117° Southeast 258 297 10,500 -1,500 Descending New York Center
12:01PM 41.1039 -75.1878 109° East 248 285 9,000 -1,500 Descending New York Center
12:02PM 41.0797 -75.1092 112° Southeast 235 270 7,600 -1,560 Descending New York Center
12:03PM 41.0497 -75.0219 114° Southeast 235 270 6,000 -840 Descending New York Center
12:04PM 41.0211 -74.9486 117° Southeast 235 270 6,000  Level New York Center
12:05PM 40.9919 -74.8836 121° Southeast 222 255 6,000  Level New York Center
12:06PM 40.9669 -74.8269 120° Southeast 201 231 6,000 -1,020 Level New York Center
12:07PM 40.9319 -74.7536 122° Southeast 208 239 4,000 -1,500 Descending New York Center
12:08PM 40.9047 -74.6917 120° Southeast 213 245 3,000 -540 Descending New York Center
12:09PM 40.8717 -74.6211 122° Southeast 218 251 3,000  Level New York Center
12:10PM 40.8500 -74.5667 118° Southeast 223 257 3,000  Level New York TRACON
12:11PM 40.8167 -74.5000 123° Southeast 220 253 3,000  Level New York TRACON
12:12PM 40.8000 -74.4500 114° Southeast 204 235 3,000  Level New York TRACON
12:13PM 40.8500 -74.4167 27° Northeast 198 228 3,000  Level New York TRACON
12:14PM 40.8333 -74.3833 123° Southeast 174 200 3,000  Level New York TRACON
12:15PM 40.7833 -74.3500 153° Southeast 186 214 3,000 -480 Level New York TRACON
12:16PM 40.7333 -74.3333 166° South 176 203 2,000 -540 Descending New York TRACON
12:17PM 40.7333 -74.2833 90° East 153 176 2,000 -60 Level New York TRACON
12:18PM 40.7500 -74.2167 72° East 176 203 1,900 -300 Descending New York TRACON
12:19PM 40.7667 -74.1833 57° Northeast 170 196 1,500 -300 Descending New York TRACON
12:20PM 40.8000 -74.1333 49° Northeast 174 200 1,300 -480 Descending New York TRACON
12:21PM 40.8333 -74.1000 37° Northeast 122 140 600 -720 Descending New York TRACON
12:23PM 40.8501 -74.0608 49° Northeast  Level Estimated
12:30PM 40.8501 -74.0608 49° Northeast  Level Estimated